sensor_id;sensor_type;location;lat;lon;timestamp;P1;durP1;ratioP1;P2;durP2;ratioP2
22935;SDS011;11633;42.716;23.312;2022-12-18T00:01:39;8.90;;;5.10;;
22935;SDS011;11633;42.716;23.312;2022-12-18T00:04:04;7.07;;;4.40;;
22935;SDS011;11633;42.716;23.312;2022-12-18T00:06:30;7.38;;;5.10;;
22935;SDS011;11633;42.716;23.312;2022-12-18T00:08:56;6.82;;;4.68;;
22935;SDS011;11633;42.716;23.312;2022-12-18T00:11:23;8.52;;;5.20;;
22935;SDS011;11633;42.716;23.312;2022-12-18T00:13:48;6.07;;;4.57;;
22935;SDS011;11633;42.716;23.312;2022-12-18T00:16:18;6.93;;;4.93;;
22935;SDS011;11633;42.716;23.312;2022-12-18T00:18:50;9.50;;;5.20;;
22935;SDS011;11633;42.716;23.312;2022-12-18T00:21:16;8.13;;;5.57;;
22935;SDS011;11633;42.716;23.312;2022-12-18T00:23:42;8.48;;;5.22;;
22935;SDS011;11633;42.716;23.312;2022-12-18T00:26:11;8.27;;;5.60;;
22935;SDS011;11633;42.716;23.312;2022-12-18T00:28:37;6.93;;;4.72;;
22935;SDS011;11633;42.716;23.312;2022-12-18T00:31:03;7.53;;;4.97;;
22935;SDS011;11633;42.716;23.312;2022-12-18T00:33:28;7.30;;;5.18;;
22935;SDS011;11633;42.716;23.312;2022-12-18T00:35:53;7.82;;;5.32;;
22935;SDS011;11633;42.716;23.312;2022-12-18T00:38:18;5.60;;;4.50;;
22935;SDS011;11633;42.716;23.312;2022-12-18T00:40:44;7.28;;;5.25;;
22935;SDS011;11633;42.716;23.312;2022-12-18T00:43:09;7.50;;;4.90;;
22935;SDS011;11633;42.716;23.312;2022-12-18T00:45:34;7.38;;;4.75;;
22935;SDS011;11633;42.716;23.312;2022-12-18T00:48:00;7.10;;;5.05;;
22935;SDS011;11633;42.716;23.312;2022-12-18T00:50:25;9.85;;;5.07;;
22935;SDS011;11633;42.716;23.312;2022-12-18T00:52:51;5.78;;;4.43;;
22935;SDS011;11633;42.716;23.312;2022-12-18T00:55:16;10.05;;;5.28;;
22935;SDS011;11633;42.716;23.312;2022-12-18T00:57:41;8.05;;;5.07;;
22935;SDS011;11633;42.716;23.312;2022-12-18T01:00:08;9.60;;;5.13;;
22935;SDS011;11633;42.716;23.312;2022-12-18T01:02:33;8.70;;;5.80;;
22935;SDS011;11633;42.716;23.312;2022-12-18T01:04:59;7.35;;;5.13;;
22935;SDS011;11633;42.716;23.312;2022-12-18T01:07:24;7.88;;;5.40;;
22935;SDS011;11633;42.716;23.312;2022-12-18T01:09:49;8.52;;;5.78;;
22935;SDS011;11633;42.716;23.312;2022-12-18T01:12:14;7.80;;;5.60;;
22935;SDS011;11633;42.716;23.312;2022-12-18T01:14:40;7.75;;;4.93;;
22935;SDS011;11633;42.716;23.312;2022-12-18T01:17:05;9.10;;;5.88;;
22935;SDS011;11633;42.716;23.312;2022-12-18T01:19:30;8.52;;;5.18;;
22935;SDS011;11633;42.716;23.312;2022-12-18T01:21:55;8.57;;;5.70;;
22935;SDS011;11633;42.716;23.312;2022-12-18T01:24:21;8.32;;;5.57;;
22935;SDS011;11633;42.716;23.312;2022-12-18T01:26:46;7.13;;;5.60;;
22935;SDS011;11633;42.716;23.312;2022-12-18T01:29:11;7.25;;;5.35;;
22935;SDS011;11633;42.716;23.312;2022-12-18T01:31:36;8.85;;;5.60;;
22935;SDS011;11633;42.716;23.312;2022-12-18T01:34:02;8.02;;;5.65;;
22935;SDS011;11633;42.716;23.312;2022-12-18T01:36:30;9.48;;;5.60;;
22935;SDS011;11633;42.716;23.312;2022-12-18T01:38:55;9.45;;;5.18;;
22935;SDS011;11633;42.716;23.312;2022-12-18T01:41:22;9.20;;;5.32;;
22935;SDS011;11633;42.716;23.312;2022-12-18T01:43:49;15.80;;;5.35;;
22935;SDS011;11633;42.716;23.312;2022-12-18T01:46:15;6.75;;;5.45;;
22935;SDS011;11633;42.716;23.312;2022-12-18T01:48:40;7.07;;;5.10;;
22935;SDS011;11633;42.716;23.312;2022-12-18T01:51:07;9.18;;;5.60;;
22935;SDS011;11633;42.716;23.312;2022-12-18T01:53:32;6.57;;;5.32;;
22935;SDS011;11633;42.716;23.312;2022-12-18T01:55:58;9.27;;;5.95;;
22935;SDS011;11633;42.716;23.312;2022-12-18T01:59:06;8.05;;;4.97;;
22935;SDS011;11633;42.716;23.312;2022-12-18T02:01:12;7.10;;;5.18;;
22935;SDS011;11633;42.716;23.312;2022-12-18T02:03:40;6.75;;;5.07;;
22935;SDS011;11633;42.716;23.312;2022-12-18T02:06:13;7.60;;;4.50;;
22935;SDS011;11633;42.716;23.312;2022-12-18T02:08:42;8.43;;;5.03;;
22935;SDS011;11633;42.716;23.312;2022-12-18T02:11:16;10.32;;;5.22;;
22935;SDS011;11633;42.716;23.312;2022-12-18T02:13:53;8.05;;;5.30;;
22935;SDS011;11633;42.716;23.312;2022-12-18T02:16:25;5.35;;;4.03;;
22935;SDS011;11633;42.716;23.312;2022-12-18T02:18:56;9.13;;;4.93;;
22935;SDS011;11633;42.716;23.312;2022-12-18T02:21:28;8.18;;;4.53;;
22935;SDS011;11633;42.716;23.312;2022-12-18T02:26:22;9.43;;;5.35;;
22935;SDS011;11633;42.716;23.312;2022-12-18T02:29:02;7.85;;;4.70;;
22935;SDS011;11633;42.716;23.312;2022-12-18T02:31:30;9.43;;;5.30;;
22935;SDS011;11633;42.716;23.312;2022-12-18T02:33:56;6.47;;;4.40;;
22935;SDS011;11633;42.716;23.312;2022-12-18T02:36:23;6.55;;;4.32;;
22935;SDS011;11633;42.716;23.312;2022-12-18T02:38:49;7.65;;;4.57;;
22935;SDS011;11633;42.716;23.312;2022-12-18T02:41:15;6.18;;;4.40;;
22935;SDS011;11633;42.716;23.312;2022-12-18T02:43:45;6.55;;;4.32;;
22935;SDS011;11633;42.716;23.312;2022-12-18T02:46:24;7.60;;;4.75;;
22935;SDS011;11633;42.716;23.312;2022-12-18T02:48:50;6.00;;;4.13;;
22935;SDS011;11633;42.716;23.312;2022-12-18T02:51:19;5.03;;;3.97;;
22935;SDS011;11633;42.716;23.312;2022-12-18T02:53:51;7.40;;;3.78;;
22935;SDS011;11633;42.716;23.312;2022-12-18T02:56:23;6.45;;;3.85;;
22935;SDS011;11633;42.716;23.312;2022-12-18T02:58:54;5.93;;;3.95;;
22935;SDS011;11633;42.716;23.312;2022-12-18T03:01:22;8.60;;;4.40;;
22935;SDS011;11633;42.716;23.312;2022-12-18T03:03:51;8.15;;;5.05;;
22935;SDS011;11633;42.716;23.312;2022-12-18T03:08:56;8.93;;;4.72;;
22935;SDS011;11633;42.716;23.312;2022-12-18T03:11:22;7.00;;;4.50;;
22935;SDS011;11633;42.716;23.312;2022-12-18T03:14:07;6.38;;;4.40;;
22935;SDS011;11633;42.716;23.312;2022-12-18T03:16:34;7.28;;;4.55;;
22935;SDS011;11633;42.716;23.312;2022-12-18T03:19:01;8.63;;;3.95;;
22935;SDS011;11633;42.716;23.312;2022-12-18T03:21:29;9.95;;;4.65;;
22935;SDS011;11633;42.716;23.312;2022-12-18T03:23:54;6.57;;;4.65;;
22935;SDS011;11633;42.716;23.312;2022-12-18T03:26:22;5.65;;;4.15;;
22935;SDS011;11633;42.716;23.312;2022-12-18T03:28:52;7.13;;;4.13;;
22935;SDS011;11633;42.716;23.312;2022-12-18T03:31:19;5.45;;;3.97;;
22935;SDS011;11633;42.716;23.312;2022-12-18T03:33:53;5.90;;;4.05;;
22935;SDS011;11633;42.716;23.312;2022-12-18T03:36:18;6.22;;;4.32;;
22935;SDS011;11633;42.716;23.312;2022-12-18T03:38:44;6.10;;;4.10;;
22935;SDS011;11633;42.716;23.312;2022-12-18T03:41:17;7.43;;;4.40;;
22935;SDS011;11633;42.716;23.312;2022-12-18T03:49:11;6.88;;;4.70;;
22935;SDS011;11633;42.716;23.312;2022-12-18T03:54:19;7.82;;;4.38;;
22935;SDS011;11633;42.716;23.312;2022-12-18T03:56:51;10.50;;;5.43;;
22935;SDS011;11633;42.716;23.312;2022-12-18T03:59:19;7.88;;;4.53;;
22935;SDS011;11633;42.716;23.312;2022-12-18T04:01:46;8.98;;;5.60;;
22935;SDS011;11633;42.716;23.312;2022-12-18T04:04:12;7.93;;;4.93;;
22935;SDS011;11633;42.716;23.312;2022-12-18T04:06:39;9.20;;;5.03;;
22935;SDS011;11633;42.716;23.312;2022-12-18T04:09:05;9.90;;;5.00;;
22935;SDS011;11633;42.716;23.312;2022-12-18T04:11:31;9.57;;;5.75;;
22935;SDS011;11633;42.716;23.312;2022-12-18T04:13:57;7.70;;;4.47;;
22935;SDS011;11633;42.716;23.312;2022-12-18T04:16:22;8.13;;;5.20;;
22935;SDS011;11633;42.716;23.312;2022-12-18T04:18:48;8.05;;;5.70;;
22935;SDS011;11633;42.716;23.312;2022-12-18T04:21:13;13.18;;;6.53;;
22935;SDS011;11633;42.716;23.312;2022-12-18T04:23:38;11.25;;;6.40;;
22935;SDS011;11633;42.716;23.312;2022-12-18T04:26:03;12.52;;;6.20;;
22935;SDS011;11633;42.716;23.312;2022-12-18T04:28:29;10.45;;;5.93;;
22935;SDS011;11633;42.716;23.312;2022-12-18T04:30:54;10.45;;;5.47;;
22935;SDS011;11633;42.716;23.312;2022-12-18T04:33:19;10.55;;;5.93;;
22935;SDS011;11633;42.716;23.312;2022-12-18T04:35:44;10.07;;;5.50;;
22935;SDS011;11633;42.716;23.312;2022-12-18T04:38:10;16.08;;;6.68;;
22935;SDS011;11633;42.716;23.312;2022-12-18T04:40:35;10.30;;;6.28;;
22935;SDS011;11633;42.716;23.312;2022-12-18T04:43:01;13.48;;;6.78;;
22935;SDS011;11633;42.716;23.312;2022-12-18T04:45:26;11.18;;;5.80;;
22935;SDS011;11633;42.716;23.312;2022-12-18T04:47:51;10.93;;;7.07;;
22935;SDS011;11633;42.716;23.312;2022-12-18T04:50:16;9.70;;;5.80;;
22935;SDS011;11633;42.716;23.312;2022-12-18T04:52:42;11.02;;;6.90;;
22935;SDS011;11633;42.716;23.312;2022-12-18T04:55:07;11.18;;;6.70;;
22935;SDS011;11633;42.716;23.312;2022-12-18T04:57:32;12.15;;;6.55;;
22935;SDS011;11633;42.716;23.312;2022-12-18T04:59:57;11.38;;;7.03;;
22935;SDS011;11633;42.716;23.312;2022-12-18T05:02:23;10.85;;;7.07;;
22935;SDS011;11633;42.716;23.312;2022-12-18T05:04:48;13.07;;;7.35;;
22935;SDS011;11633;42.716;23.312;2022-12-18T05:07:13;9.88;;;6.05;;
22935;SDS011;11633;42.716;23.312;2022-12-18T05:09:38;11.98;;;7.32;;
22935;SDS011;11633;42.716;23.312;2022-12-18T05:12:04;12.93;;;5.60;;
22935;SDS011;11633;42.716;23.312;2022-12-18T05:14:29;13.32;;;7.10;;
22935;SDS011;11633;42.716;23.312;2022-12-18T05:16:54;13.45;;;7.13;;
22935;SDS011;11633;42.716;23.312;2022-12-18T05:19:19;12.77;;;7.78;;
22935;SDS011;11633;42.716;23.312;2022-12-18T05:21:45;13.05;;;7.38;;
22935;SDS011;11633;42.716;23.312;2022-12-18T05:24:10;10.13;;;6.43;;
22935;SDS011;11633;42.716;23.312;2022-12-18T05:26:35;12.68;;;6.72;;
22935;SDS011;11633;42.716;23.312;2022-12-18T05:29:00;11.30;;;7.28;;
22935;SDS011;11633;42.716;23.312;2022-12-18T05:31:26;10.65;;;6.60;;
22935;SDS011;11633;42.716;23.312;2022-12-18T05:33:51;9.95;;;6.25;;
22935;SDS011;11633;42.716;23.312;2022-12-18T05:36:16;13.50;;;7.07;;
22935;SDS011;11633;42.716;23.312;2022-12-18T05:38:41;11.27;;;7.28;;
22935;SDS011;11633;42.716;23.312;2022-12-18T05:41:07;9.55;;;6.30;;
22935;SDS011;11633;42.716;23.312;2022-12-18T05:43:34;14.15;;;8.80;;
22935;SDS011;11633;42.716;23.312;2022-12-18T05:46:03;13.23;;;7.53;;
22935;SDS011;11633;42.716;23.312;2022-12-18T05:48:28;13.98;;;7.57;;
22935;SDS011;11633;42.716;23.312;2022-12-18T05:50:53;16.98;;;9.43;;
22935;SDS011;11633;42.716;23.312;2022-12-18T05:53:19;17.02;;;9.25;;
22935;SDS011;11633;42.716;23.312;2022-12-18T05:55:45;16.85;;;8.32;;
22935;SDS011;11633;42.716;23.312;2022-12-18T05:58:11;12.07;;;7.15;;
22935;SDS011;11633;42.716;23.312;2022-12-18T06:00:38;13.50;;;8.35;;
22935;SDS011;11633;42.716;23.312;2022-12-18T06:03:10;13.95;;;8.05;;
22935;SDS011;11633;42.716;23.312;2022-12-18T06:05:39;17.52;;;8.30;;
22935;SDS011;11633;42.716;23.312;2022-12-18T06:08:05;10.80;;;6.38;;
22935;SDS011;11633;42.716;23.312;2022-12-18T06:10:30;12.55;;;8.13;;
22935;SDS011;11633;42.716;23.312;2022-12-18T06:12:55;14.57;;;8.13;;
22935;SDS011;11633;42.716;23.312;2022-12-18T06:15:21;19.45;;;8.68;;
22935;SDS011;11633;42.716;23.312;2022-12-18T06:17:46;12.55;;;7.50;;
22935;SDS011;11633;42.716;23.312;2022-12-18T06:20:11;15.27;;;7.68;;
22935;SDS011;11633;42.716;23.312;2022-12-18T06:22:36;12.68;;;7.10;;
22935;SDS011;11633;42.716;23.312;2022-12-18T06:25:02;15.55;;;7.88;;
22935;SDS011;11633;42.716;23.312;2022-12-18T06:27:27;19.30;;;8.57;;
22935;SDS011;11633;42.716;23.312;2022-12-18T06:29:52;12.27;;;6.93;;
22935;SDS011;11633;42.716;23.312;2022-12-18T06:32:18;12.48;;;7.22;;
22935;SDS011;11633;42.716;23.312;2022-12-18T06:34:43;18.45;;;8.40;;
22935;SDS011;11633;42.716;23.312;2022-12-18T06:37:08;15.95;;;7.78;;
22935;SDS011;11633;42.716;23.312;2022-12-18T06:39:33;11.02;;;6.60;;
22935;SDS011;11633;42.716;23.312;2022-12-18T06:41:58;14.55;;;7.95;;
22935;SDS011;11633;42.716;23.312;2022-12-18T06:44:24;17.20;;;8.30;;
22935;SDS011;11633;42.716;23.312;2022-12-18T06:46:49;12.75;;;7.55;;
22935;SDS011;11633;42.716;23.312;2022-12-18T06:49:14;12.35;;;7.22;;
22935;SDS011;11633;42.716;23.312;2022-12-18T06:51:40;13.90;;;7.93;;
22935;SDS011;11633;42.716;23.312;2022-12-18T06:54:06;13.65;;;8.27;;
22935;SDS011;11633;42.716;23.312;2022-12-18T06:56:31;13.10;;;7.05;;
22935;SDS011;11633;42.716;23.312;2022-12-18T06:58:56;13.70;;;7.65;;
22935;SDS011;11633;42.716;23.312;2022-12-18T07:01:22;11.65;;;7.60;;
22935;SDS011;11633;42.716;23.312;2022-12-18T07:03:51;12.18;;;7.20;;
22935;SDS011;11633;42.716;23.312;2022-12-18T07:06:17;16.02;;;7.47;;
22935;SDS011;11633;42.716;23.312;2022-12-18T07:08:43;14.32;;;6.72;;
22935;SDS011;11633;42.716;23.312;2022-12-18T07:11:08;12.35;;;6.57;;
22935;SDS011;11633;42.716;23.312;2022-12-18T07:13:34;11.90;;;6.50;;
22935;SDS011;11633;42.716;23.312;2022-12-18T07:16:09;11.75;;;6.70;;
22935;SDS011;11633;42.716;23.312;2022-12-18T07:18:34;13.20;;;7.88;;
22935;SDS011;11633;42.716;23.312;2022-12-18T07:21:04;11.73;;;7.13;;
22935;SDS011;11633;42.716;23.312;2022-12-18T07:23:29;13.05;;;6.55;;
22935;SDS011;11633;42.716;23.312;2022-12-18T07:25:59;13.63;;;6.95;;
22935;SDS011;11633;42.716;23.312;2022-12-18T07:28:25;12.65;;;6.88;;
22935;SDS011;11633;42.716;23.312;2022-12-18T07:30:50;16.27;;;8.27;;
22935;SDS011;11633;42.716;23.312;2022-12-18T07:33:15;17.73;;;8.95;;
22935;SDS011;11633;42.716;23.312;2022-12-18T07:35:40;16.20;;;8.40;;
22935;SDS011;11633;42.716;23.312;2022-12-18T07:38:06;12.70;;;7.30;;
22935;SDS011;11633;42.716;23.312;2022-12-18T07:40:31;11.40;;;7.53;;
22935;SDS011;11633;42.716;23.312;2022-12-18T07:42:56;12.88;;;8.23;;
22935;SDS011;11633;42.716;23.312;2022-12-18T07:45:21;14.90;;;7.50;;
22935;SDS011;11633;42.716;23.312;2022-12-18T07:47:47;15.80;;;8.23;;
22935;SDS011;11633;42.716;23.312;2022-12-18T07:50:12;17.73;;;7.82;;
22935;SDS011;11633;42.716;23.312;2022-12-18T07:52:38;15.20;;;7.70;;
22935;SDS011;11633;42.716;23.312;2022-12-18T07:55:03;15.13;;;7.85;;
22935;SDS011;11633;42.716;23.312;2022-12-18T07:57:29;18.90;;;8.50;;
22935;SDS011;11633;42.716;23.312;2022-12-18T07:59:54;17.15;;;8.40;;
22935;SDS011;11633;42.716;23.312;2022-12-18T08:02:19;15.95;;;8.82;;
22935;SDS011;11633;42.716;23.312;2022-12-18T08:04:44;16.88;;;9.68;;
22935;SDS011;11633;42.716;23.312;2022-12-18T08:07:10;18.60;;;8.98;;
22935;SDS011;11633;42.716;23.312;2022-12-18T08:09:35;15.77;;;8.25;;
22935;SDS011;11633;42.716;23.312;2022-12-18T08:12:01;14.23;;;8.10;;
22935;SDS011;11633;42.716;23.312;2022-12-18T08:14:27;14.13;;;7.80;;
22935;SDS011;11633;42.716;23.312;2022-12-18T08:16:52;18.45;;;9.10;;
22935;SDS011;11633;42.716;23.312;2022-12-18T08:19:17;14.07;;;7.43;;
22935;SDS011;11633;42.716;23.312;2022-12-18T08:21:42;15.02;;;7.90;;
22935;SDS011;11633;42.716;23.312;2022-12-18T08:24:08;15.98;;;9.07;;
22935;SDS011;11633;42.716;23.312;2022-12-18T08:26:34;15.13;;;8.30;;
22935;SDS011;11633;42.716;23.312;2022-12-18T08:28:59;14.73;;;8.00;;
22935;SDS011;11633;42.716;23.312;2022-12-18T08:31:25;15.55;;;8.65;;
22935;SDS011;11633;42.716;23.312;2022-12-18T08:33:51;14.57;;;8.52;;
22935;SDS011;11633;42.716;23.312;2022-12-18T08:36:17;13.57;;;8.57;;
22935;SDS011;11633;42.716;23.312;2022-12-18T08:38:42;15.98;;;8.75;;
22935;SDS011;11633;42.716;23.312;2022-12-18T08:41:08;12.55;;;7.65;;
22935;SDS011;11633;42.716;23.312;2022-12-18T08:43:34;14.25;;;8.27;;
22935;SDS011;11633;42.716;23.312;2022-12-18T08:46:18;10.65;;;6.95;;
22935;SDS011;11633;42.716;23.312;2022-12-18T08:48:44;16.40;;;7.53;;
22935;SDS011;11633;42.716;23.312;2022-12-18T08:51:09;16.15;;;7.28;;
22935;SDS011;11633;42.716;23.312;2022-12-18T08:53:35;12.55;;;7.60;;
22935;SDS011;11633;42.716;23.312;2022-12-18T08:56:00;15.75;;;8.60;;
22935;SDS011;11633;42.716;23.312;2022-12-18T08:58:25;10.48;;;6.85;;
22935;SDS011;11633;42.716;23.312;2022-12-18T09:00:50;10.82;;;6.95;;
22935;SDS011;11633;42.716;23.312;2022-12-18T09:03:17;15.10;;;7.47;;
22935;SDS011;11633;42.716;23.312;2022-12-18T09:05:42;15.38;;;8.13;;
22935;SDS011;11633;42.716;23.312;2022-12-18T09:08:08;13.85;;;7.47;;
22935;SDS011;11633;42.716;23.312;2022-12-18T09:10:34;12.88;;;7.25;;
22935;SDS011;11633;42.716;23.312;2022-12-18T09:12:59;14.20;;;8.25;;
22935;SDS011;11633;42.716;23.312;2022-12-18T09:15:25;11.90;;;6.90;;
22935;SDS011;11633;42.716;23.312;2022-12-18T09:17:50;14.25;;;8.23;;
22935;SDS011;11633;42.716;23.312;2022-12-18T09:20:15;12.95;;;6.90;;
22935;SDS011;11633;42.716;23.312;2022-12-18T09:22:41;12.23;;;7.30;;
22935;SDS011;11633;42.716;23.312;2022-12-18T09:25:06;15.80;;;8.02;;
22935;SDS011;11633;42.716;23.312;2022-12-18T09:27:34;11.48;;;6.97;;
22935;SDS011;11633;42.716;23.312;2022-12-18T09:30:00;12.27;;;7.45;;
22935;SDS011;11633;42.716;23.312;2022-12-18T09:32:25;14.48;;;7.43;;
22935;SDS011;11633;42.716;23.312;2022-12-18T09:34:50;15.25;;;7.68;;
22935;SDS011;11633;42.716;23.312;2022-12-18T09:37:16;11.98;;;6.88;;
22935;SDS011;11633;42.716;23.312;2022-12-18T09:39:41;14.55;;;7.78;;
22935;SDS011;11633;42.716;23.312;2022-12-18T09:42:08;12.65;;;7.13;;
22935;SDS011;11633;42.716;23.312;2022-12-18T09:44:41;10.45;;;5.95;;
22935;SDS011;11633;42.716;23.312;2022-12-18T09:47:30;14.13;;;7.35;;
22935;SDS011;11633;42.716;23.312;2022-12-18T09:49:59;11.45;;;6.45;;
22935;SDS011;11633;42.716;23.312;2022-12-18T09:55:01;10.02;;;7.00;;
22935;SDS011;11633;42.716;23.312;2022-12-18T09:57:28;13.73;;;6.70;;
22935;SDS011;11633;42.716;23.312;2022-12-18T09:59:55;12.13;;;7.20;;
22935;SDS011;11633;42.716;23.312;2022-12-18T10:02:22;12.48;;;7.47;;
22935;SDS011;11633;42.716;23.312;2022-12-18T10:10:11;14.43;;;7.63;;
22935;SDS011;11633;42.716;23.312;2022-12-18T10:18:17;17.63;;;6.90;;
22935;SDS011;11633;42.716;23.312;2022-12-18T10:20:49;11.65;;;6.97;;
22935;SDS011;11633;42.716;23.312;2022-12-18T10:23:21;11.88;;;7.15;;
22935;SDS011;11633;42.716;23.312;2022-12-18T10:28:20;10.88;;;6.10;;
22935;SDS011;11633;42.716;23.312;2022-12-18T10:30:45;14.10;;;7.30;;
22935;SDS011;11633;42.716;23.312;2022-12-18T10:33:15;13.80;;;6.93;;
22935;SDS011;11633;42.716;23.312;2022-12-18T10:35:41;12.90;;;7.68;;
22935;SDS011;11633;42.716;23.312;2022-12-18T10:40:32;12.25;;;7.18;;
22935;SDS011;11633;42.716;23.312;2022-12-18T10:43:11;15.48;;;7.18;;
22935;SDS011;11633;42.716;23.312;2022-12-18T10:45:37;13.98;;;7.82;;
22935;SDS011;11633;42.716;23.312;2022-12-18T10:48:05;14.73;;;7.25;;
22935;SDS011;11633;42.716;23.312;2022-12-18T10:50:42;12.73;;;7.28;;
22935;SDS011;11633;42.716;23.312;2022-12-18T10:53:13;12.50;;;7.40;;
22935;SDS011;11633;42.716;23.312;2022-12-18T10:55:41;13.25;;;7.20;;
22935;SDS011;11633;42.716;23.312;2022-12-18T10:58:16;17.63;;;8.70;;
22935;SDS011;11633;42.716;23.312;2022-12-18T11:00:44;15.68;;;7.65;;
22935;SDS011;11633;42.716;23.312;2022-12-18T11:03:28;13.93;;;7.25;;
22935;SDS011;11633;42.716;23.312;2022-12-18T11:06:04;12.65;;;7.10;;
22935;SDS011;11633;42.716;23.312;2022-12-18T11:08:30;13.20;;;8.23;;
22935;SDS011;11633;42.716;23.312;2022-12-18T11:10:55;12.10;;;7.10;;
22935;SDS011;11633;42.716;23.312;2022-12-18T11:13:21;14.38;;;7.03;;
22935;SDS011;11633;42.716;23.312;2022-12-18T11:15:47;9.48;;;6.28;;
22935;SDS011;11633;42.716;23.312;2022-12-18T11:18:55;15.35;;;7.07;;
22935;SDS011;11633;42.716;23.312;2022-12-18T11:21:09;14.07;;;7.32;;
22935;SDS011;11633;42.716;23.312;2022-12-18T11:23:35;10.70;;;6.55;;
22935;SDS011;11633;42.716;23.312;2022-12-18T11:26:01;12.13;;;7.00;;
22935;SDS011;11633;42.716;23.312;2022-12-18T11:28:35;13.10;;;6.95;;
22935;SDS011;11633;42.716;23.312;2022-12-18T11:31:21;12.07;;;6.75;;
22935;SDS011;11633;42.716;23.312;2022-12-18T11:33:58;29.13;;;10.45;;
22935;SDS011;11633;42.716;23.312;2022-12-18T11:36:24;12.30;;;7.50;;
22935;SDS011;11633;42.716;23.312;2022-12-18T11:38:51;12.02;;;7.43;;
22935;SDS011;11633;42.716;23.312;2022-12-18T11:41:21;15.10;;;7.47;;
22935;SDS011;11633;42.716;23.312;2022-12-18T11:44:08;10.27;;;6.63;;
22935;SDS011;11633;42.716;23.312;2022-12-18T11:46:39;13.52;;;6.75;;
22935;SDS011;11633;42.716;23.312;2022-12-18T11:49:11;10.90;;;6.63;;
22935;SDS011;11633;42.716;23.312;2022-12-18T11:51:48;13.60;;;7.18;;
22935;SDS011;11633;42.716;23.312;2022-12-18T11:54:15;14.90;;;6.82;;
22935;SDS011;11633;42.716;23.312;2022-12-18T11:56:58;10.23;;;6.63;;
22935;SDS011;11633;42.716;23.312;2022-12-18T11:59:33;16.08;;;8.43;;
22935;SDS011;11633;42.716;23.312;2022-12-18T12:21:55;14.02;;;7.43;;
22935;SDS011;11633;42.716;23.312;2022-12-18T12:31:54;12.15;;;6.50;;
22935;SDS011;11633;42.716;23.312;2022-12-18T12:39:23;15.80;;;6.88;;
22935;SDS011;11633;42.716;23.312;2022-12-18T12:41:50;16.10;;;8.13;;
22935;SDS011;11633;42.716;23.312;2022-12-18T12:44:37;14.00;;;7.28;;
22935;SDS011;11633;42.716;23.312;2022-12-18T12:49:47;13.43;;;8.00;;
22935;SDS011;11633;42.716;23.312;2022-12-18T12:54:57;13.52;;;8.20;;
22935;SDS011;11633;42.716;23.312;2022-12-18T13:02:39;12.60;;;7.93;;
22935;SDS011;11633;42.716;23.312;2022-12-18T13:07:45;12.98;;;7.72;;
22935;SDS011;11633;42.716;23.312;2022-12-18T13:10:14;11.82;;;7.70;;
22935;SDS011;11633;42.716;23.312;2022-12-18T13:15:38;14.13;;;7.60;;
22935;SDS011;11633;42.716;23.312;2022-12-18T13:18:14;12.25;;;7.25;;
22935;SDS011;11633;42.716;23.312;2022-12-18T13:23:19;12.90;;;7.22;;
22935;SDS011;11633;42.716;23.312;2022-12-18T13:25:44;10.35;;;6.97;;
22935;SDS011;11633;42.716;23.312;2022-12-18T13:28:13;14.38;;;8.35;;
22935;SDS011;11633;42.716;23.312;2022-12-18T13:30:43;12.82;;;7.82;;
22935;SDS011;11633;42.716;23.312;2022-12-18T13:40:55;12.20;;;7.47;;
22935;SDS011;11633;42.716;23.312;2022-12-18T13:46:00;15.52;;;7.32;;
22935;SDS011;11633;42.716;23.312;2022-12-18T13:48:26;11.05;;;6.75;;
22935;SDS011;11633;42.716;23.312;2022-12-18T13:50:56;12.57;;;7.30;;
22935;SDS011;11633;42.716;23.312;2022-12-18T13:56:06;11.30;;;6.97;;
22935;SDS011;11633;42.716;23.312;2022-12-18T13:58:31;12.88;;;7.07;;
22935;SDS011;11633;42.716;23.312;2022-12-18T14:00:57;11.27;;;6.40;;
22935;SDS011;11633;42.716;23.312;2022-12-18T14:03:25;12.75;;;6.40;;
22935;SDS011;11633;42.716;23.312;2022-12-18T14:06:12;15.40;;;7.05;;
22935;SDS011;11633;42.716;23.312;2022-12-18T14:08:40;11.98;;;6.57;;
22935;SDS011;11633;42.716;23.312;2022-12-18T14:11:06;11.68;;;6.78;;
22935;SDS011;11633;42.716;23.312;2022-12-18T14:13:33;11.02;;;6.65;;
22935;SDS011;11633;42.716;23.312;2022-12-18T14:16:01;11.13;;;6.68;;
22935;SDS011;11633;42.716;23.312;2022-12-18T14:18:37;13.50;;;7.57;;
22935;SDS011;11633;42.716;23.312;2022-12-18T14:21:03;13.82;;;7.25;;
22935;SDS011;11633;42.716;23.312;2022-12-18T14:23:36;16.50;;;8.52;;
22935;SDS011;11633;42.716;23.312;2022-12-18T14:26:02;14.70;;;7.15;;
22935;SDS011;11633;42.716;23.312;2022-12-18T14:28:28;12.15;;;6.05;;
22935;SDS011;11633;42.716;23.312;2022-12-18T14:30:54;11.68;;;6.97;;
22935;SDS011;11633;42.716;23.312;2022-12-18T14:33:24;11.25;;;5.72;;
22935;SDS011;11633;42.716;23.312;2022-12-18T14:41:06;10.68;;;5.85;;
22935;SDS011;11633;42.716;23.312;2022-12-18T14:43:36;13.82;;;7.55;;
22935;SDS011;11633;42.716;23.312;2022-12-18T14:46:02;14.65;;;6.88;;
22935;SDS011;11633;42.716;23.312;2022-12-18T14:48:33;11.25;;;6.03;;
22935;SDS011;11633;42.716;23.312;2022-12-18T14:51:06;11.90;;;6.45;;
22935;SDS011;11633;42.716;23.312;2022-12-18T14:53:39;11.10;;;6.05;;
22935;SDS011;11633;42.716;23.312;2022-12-18T14:58:43;12.38;;;7.03;;
22935;SDS011;11633;42.716;23.312;2022-12-18T15:01:09;11.32;;;6.63;;
22935;SDS011;11633;42.716;23.312;2022-12-18T15:03:43;11.93;;;5.78;;
22935;SDS011;11633;42.716;23.312;2022-12-18T15:06:15;11.20;;;6.20;;
22935;SDS011;11633;42.716;23.312;2022-12-18T15:08:41;12.02;;;6.07;;
22935;SDS011;11633;42.716;23.312;2022-12-18T15:11:25;15.82;;;6.32;;
22935;SDS011;11633;42.716;23.312;2022-12-18T15:13:50;11.32;;;6.35;;
22935;SDS011;11633;42.716;23.312;2022-12-18T15:16:15;12.20;;;6.60;;
22935;SDS011;11633;42.716;23.312;2022-12-18T15:18:41;14.13;;;6.22;;
22935;SDS011;11633;42.716;23.312;2022-12-18T15:21:08;9.73;;;5.93;;
22935;SDS011;11633;42.716;23.312;2022-12-18T15:26:09;13.75;;;7.30;;
22935;SDS011;11633;42.716;23.312;2022-12-18T15:28:38;14.50;;;6.20;;
22935;SDS011;11633;42.716;23.312;2022-12-18T15:33:30;15.05;;;7.60;;
22935;SDS011;11633;42.716;23.312;2022-12-18T15:35:57;17.70;;;8.10;;
22935;SDS011;11633;42.716;23.312;2022-12-18T15:38:22;12.18;;;7.18;;
22935;SDS011;11633;42.716;23.312;2022-12-18T15:40:48;14.90;;;8.07;;
22935;SDS011;11633;42.716;23.312;2022-12-18T15:43:13;12.93;;;6.97;;
22935;SDS011;11633;42.716;23.312;2022-12-18T15:45:57;16.75;;;7.03;;
22935;SDS011;11633;42.716;23.312;2022-12-18T15:48:22;14.50;;;6.72;;
22935;SDS011;11633;42.716;23.312;2022-12-18T15:50:51;16.90;;;8.05;;
22935;SDS011;11633;42.716;23.312;2022-12-18T15:53:17;16.25;;;6.97;;
22935;SDS011;11633;42.716;23.312;2022-12-18T15:58:56;14.93;;;7.63;;
22935;SDS011;11633;42.716;23.312;2022-12-18T16:01:23;13.60;;;7.82;;
22935;SDS011;11633;42.716;23.312;2022-12-18T16:03:48;14.38;;;7.88;;
22935;SDS011;11633;42.716;23.312;2022-12-18T16:06:14;14.10;;;7.55;;
22935;SDS011;11633;42.716;23.312;2022-12-18T16:08:39;14.20;;;7.20;;
22935;SDS011;11633;42.716;23.312;2022-12-18T16:11:04;15.48;;;7.68;;
22935;SDS011;11633;42.716;23.312;2022-12-18T16:13:30;13.55;;;7.03;;
22935;SDS011;11633;42.716;23.312;2022-12-18T16:15:55;13.63;;;8.05;;
22935;SDS011;11633;42.716;23.312;2022-12-18T16:18:21;14.55;;;8.05;;
22935;SDS011;11633;42.716;23.312;2022-12-18T16:20:46;19.25;;;8.65;;